createdAt,value
2018-01-15T00:00:01.397Z,-2.8
2018-01-15T00:05:01.877Z,-2.8
2018-01-15T00:10:01.967Z,-2.8
2018-01-15T00:15:01.814Z,-2.8
2018-01-15T00:20:01.640Z,-2.8
2018-01-15T00:25:01.772Z,-2.8
2018-01-15T00:30:01.774Z,-2.8
2018-01-15T00:35:01.862Z,-2.8
2018-01-15T00:40:01.987Z,-2.7
2018-01-15T00:45:01.669Z,-2.7
2018-01-15T00:50:01.427Z,-2.7
2018-01-15T00:55:01.989Z,-2.7
2018-01-15T01:00:01.726Z,-2.7
2018-01-15T01:05:01.910Z,-2.7
2018-01-15T01:10:01.983Z,-2.7
2018-01-15T01:15:02.078Z,-2.7
2018-01-15T01:20:02.205Z,-2.7
2018-01-15T01:25:02.907Z,-2.7
2018-01-15T01:30:01.903Z,-2.7
2018-01-15T01:35:01.842Z,-2.6
2018-01-15T01:40:02.031Z,-2.6
2018-01-15T01:45:02.321Z,-2.6
2018-01-15T01:50:02.634Z,-2.6
2018-01-15T01:55:01.898Z,-2.6
2018-01-15T02:00:01.772Z,-2.6
2018-01-15T02:05:02.221Z,-2.6
2018-01-15T02:10:02.009Z,-2.6
2018-01-15T02:15:01.461Z,-2.5
2018-01-15T02:20:02.041Z,-2.5
2018-01-15T02:25:01.676Z,-2.5
2018-01-15T02:30:01.511Z,-2.5
2018-01-15T02:35:02.016Z,-2.4
2018-01-15T02:40:02.015Z,-2.4
2018-01-15T02:45:02.003Z,-2.4
2018-01-15T02:50:02.148Z,-2.4
2018-01-15T02:55:01.501Z,-2.4
2018-01-15T03:00:02.361Z,-2.4
2018-01-15T03:05:01.927Z,-2.4
2018-01-15T03:10:02.023Z,-2.4
2018-01-15T03:15:02.068Z,-2.3
2018-01-15T03:20:01.844Z,-2.3
2018-01-15T03:25:01.995Z,-2.3
2018-01-15T03:30:01.377Z,-2.3
2018-01-15T03:35:01.667Z,-2.3
2018-01-15T03:40:01.418Z,-2.3
2018-01-15T03:45:01.387Z,-2.3
2018-01-15T03:50:01.615Z,-2.3
2018-01-15T03:55:01.366Z,-2.3
2018-01-15T04:00:01.885Z,-2.3
2018-01-15T04:05:01.875Z,-2.2
2018-01-15T04:10:01.379Z,-2.2
2018-01-15T04:15:01.242Z,-2.2
2018-01-15T04:20:02.264Z,-2.2
2018-01-15T04:25:02.029Z,-2.2
2018-01-15T04:30:02.172Z,-2.2
2018-01-15T04:35:01.787Z,-2.2
2018-01-15T04:40:02.183Z,-2.2
2018-01-15T04:45:01.713Z,-2.2
2018-01-15T04:50:01.852Z,-2.2
2018-01-15T04:55:01.838Z,-2.1
2018-01-15T05:00:02.475Z,-2.1
2018-01-15T05:05:01.598Z,-2
2018-01-15T05:10:01.491Z,-2
2018-01-15T05:15:02.443Z,-2
2018-01-15T05:20:01.321Z,-2
2018-01-15T05:25:01.502Z,-2
2018-01-15T05:30:01.538Z,-1.9
2018-01-15T05:35:02.387Z,-1.9
2018-01-15T05:40:01.309Z,-1.9
2018-01-15T05:45:01.971Z,-1.9
2018-01-15T05:50:02.468Z,-1.8
2018-01-15T05:55:01.902Z,-1.8
2018-01-15T06:00:02.176Z,-1.8
2018-01-15T06:05:01.736Z,-1.8
2018-01-15T06:10:02.462Z,-1.8
2018-01-15T06:15:01.924Z,-1.8
2018-01-15T06:20:02.062Z,-1.7
2018-01-15T06:25:01.865Z,-1.7
2018-01-15T06:30:02.666Z,-1.7
2018-01-15T06:35:01.294Z,-1.7
2018-01-15T06:40:02.125Z,-1.7
2018-01-15T06:45:01.405Z,-1.7
2018-01-15T06:50:02.114Z,-1.7
2018-01-15T06:55:01.165Z,-1.7
2018-01-15T07:00:01.456Z,-1.7
2018-01-15T07:05:02.035Z,-1.7
2018-01-15T07:10:01.588Z,-1.7
2018-01-15T07:15:02.012Z,-1.7
2018-01-15T07:20:02.082Z,-1.7
2018-01-15T07:25:01.747Z,-1.4
2018-01-15T07:30:01.962Z,-1.4
2018-01-15T07:35:02.327Z,-1.4
2018-01-15T07:40:02.913Z,-1.4
2018-01-15T07:45:02.378Z,-1.4
2018-01-15T07:50:02.385Z,-1.4
2018-01-15T07:55:02.067Z,-1.3
2018-01-15T08:00:02.211Z,-1.3
2018-01-15T08:05:01.307Z,-1.3
2018-01-15T08:10:01.853Z,-1.2
2018-01-15T08:15:01.961Z,-1.2
2018-01-15T08:20:01.639Z,-1.2
2018-01-15T08:25:01.779Z,-1.2
2018-01-15T08:30:01.561Z,-1.2
2018-01-15T08:35:01.609Z,-1.2
2018-01-15T08:40:01.678Z,-1.2
2018-01-15T08:45:01.756Z,-0.9
2018-01-15T08:50:01.778Z,-0.9
2018-01-15T08:55:01.869Z,-0.9
2018-01-15T09:00:02.715Z,-0.9
2018-01-15T09:05:02.057Z,-0.9
2018-01-15T09:10:01.372Z,-0.9
2018-01-15T09:15:02.559Z,-0.5
2018-01-15T09:20:01.863Z,-0.5
2018-01-15T09:25:01.443Z,-0.5
2018-01-15T09:30:02.601Z,-0.5
2018-01-15T09:35:01.169Z,-0.5
2018-01-15T09:40:01.514Z,-0.5
2018-01-15T09:45:01.303Z,-0.5
2018-01-15T09:50:01.850Z,-0.5
2018-01-15T09:55:01.353Z,-0.5
2018-01-15T10:00:01.967Z,0.2
2018-01-15T10:05:02.713Z,0.2
2018-01-15T10:10:01.428Z,0.3
2018-01-15T10:15:02.159Z,0.3
2018-01-15T10:20:01.960Z,0.5
2018-01-15T10:25:02.117Z,0.6
2018-01-15T10:30:01.503Z,0.6
2018-01-15T10:35:01.972Z,0.6
2018-01-15T10:40:02.012Z,0.7
2018-01-15T10:45:01.691Z,0.8
2018-01-15T10:50:01.445Z,0.8
2018-01-15T10:55:01.627Z,0.8
2018-01-15T11:00:02.393Z,1
2018-01-15T11:05:01.654Z,1
2018-01-15T11:10:01.300Z,1.1
2018-01-15T11:15:01.334Z,1.1
2018-01-15T11:20:01.597Z,1.1
2018-01-15T11:25:01.746Z,1.1
2018-01-15T11:30:02.056Z,1.3
2018-01-15T11:35:01.642Z,1.4
2018-01-15T11:40:01.420Z,1.4
2018-01-15T11:45:01.209Z,1.4
2018-01-15T11:50:01.689Z,1.4
2018-01-15T11:55:01.170Z,1.4
2018-01-15T12:00:01.574Z,1.4
2018-01-15T12:05:02.385Z,1.5
2018-01-15T12:10:01.284Z,1.5
2018-01-15T12:15:01.919Z,1.6
2018-01-15T12:20:01.230Z,1.7
2018-01-15T12:25:02.312Z,1.7
2018-01-15T12:30:02.069Z,1.7
2018-01-15T12:35:02.060Z,1.7
2018-01-15T12:40:01.832Z,1.7
2018-01-15T12:45:01.768Z,1.7
2018-01-15T12:50:01.615Z,1.7
2018-01-15T12:55:01.413Z,1.7
2018-01-15T13:00:01.927Z,1.7
2018-01-15T13:05:02.061Z,1.7
2018-01-15T13:10:02.092Z,1.7
2018-01-15T13:15:01.736Z,1.7
2018-01-15T13:20:01.772Z,1.7
2018-01-15T13:25:01.890Z,1.7
2018-01-15T13:30:01.385Z,1.7
2018-01-15T13:35:02.519Z,1.7
2018-01-15T13:40:01.181Z,2.2
2018-01-15T13:45:01.545Z,2.2
2018-01-15T13:50:01.957Z,2.2
2018-01-15T13:55:02.248Z,2.2
2018-01-15T14:00:01.748Z,2.3
2018-01-15T14:05:02.063Z,2.3
2018-01-15T14:10:02.547Z,2.3
2018-01-15T14:15:01.418Z,2.3
2018-01-15T14:20:01.898Z,2.4
2018-01-15T14:25:01.734Z,2.4
2018-01-15T14:30:02.145Z,2.4
2018-01-15T14:35:01.967Z,2.4
2018-01-15T14:40:02.142Z,2.3
2018-01-15T14:45:01.307Z,2.3
2018-01-15T14:50:02.543Z,2.4
2018-01-15T14:55:01.706Z,2.4
2018-01-15T15:00:01.574Z,2.4
2018-01-15T15:05:01.376Z,2.4
2018-01-15T15:10:02.047Z,2.5
2018-01-15T15:15:01.360Z,2.5
2018-01-15T15:20:02.038Z,2.6
2018-01-15T15:25:02.148Z,2.6
2018-01-15T15:30:01.991Z,2.6
2018-01-15T15:35:02.160Z,2.6
2018-01-15T15:40:01.831Z,2.6
2018-01-15T15:45:01.605Z,2.7
2018-01-15T15:50:01.444Z,2.7
2018-01-15T15:55:01.774Z,2.7
2018-01-15T16:00:02.510Z,2.7
2018-01-15T16:05:01.581Z,2.7
2018-01-15T16:10:01.541Z,2.7
2018-01-15T16:15:01.715Z,2.7
2018-01-15T16:20:01.928Z,2.7
2018-01-15T16:25:01.936Z,2.7
2018-01-15T16:30:01.653Z,2.7
2018-01-15T16:35:01.754Z,2.7
2018-01-15T16:40:01.466Z,2.7
2018-01-15T16:45:01.568Z,2.7
2018-01-15T16:50:02.193Z,2.7
2018-01-15T16:55:01.488Z,2.6
2018-01-15T17:00:01.738Z,2.6
2018-01-15T17:05:01.772Z,2.6
2018-01-15T17:10:01.853Z,2.6
2018-01-15T17:15:01.647Z,2.5
2018-01-15T17:20:01.485Z,2.5
2018-01-15T17:25:02.157Z,2.5
2018-01-15T17:30:01.434Z,2.5
2018-01-15T17:35:01.762Z,2.5
2018-01-15T17:40:01.577Z,2.5
2018-01-15T17:45:01.716Z,2.5
2018-01-15T17:50:01.415Z,2.6
2018-01-15T17:55:01.233Z,2.6
2018-01-15T18:00:01.800Z,2.6
2018-01-15T18:05:02.058Z,2.6
2018-01-15T18:10:01.561Z,2.6
2018-01-15T18:15:01.779Z,2.6
2018-01-15T18:20:01.270Z,2.7
2018-01-15T18:25:02.172Z,2.7
2018-01-15T18:30:01.843Z,2.7
2018-01-15T18:35:01.919Z,2.7
2018-01-15T18:40:01.924Z,2.7
2018-01-15T18:45:02.053Z,2.7
2018-01-15T18:50:02.259Z,2.7
2018-01-15T18:55:01.329Z,2.8
2018-01-15T19:00:01.560Z,2.8
2018-01-15T19:05:02.472Z,2.8
2018-01-15T19:10:01.811Z,2.9
2018-01-15T19:15:02.090Z,2.9
2018-01-15T19:20:02.057Z,2.9
2018-01-15T19:25:02.036Z,3
2018-01-15T19:30:01.723Z,3
2018-01-15T19:35:01.766Z,3
2018-01-15T19:40:01.876Z,3
2018-01-15T19:45:01.416Z,3
2018-01-15T19:50:01.916Z,3
2018-01-15T19:55:01.997Z,3
2018-01-15T20:00:01.944Z,3
2018-01-15T20:05:01.680Z,3
2018-01-15T20:10:02.448Z,3
2018-01-15T20:15:01.988Z,3
2018-01-15T20:20:01.544Z,3
2018-01-15T20:25:01.340Z,3
2018-01-15T20:30:01.771Z,3
2018-01-15T20:35:01.987Z,3
2018-01-15T20:40:02.007Z,3
2018-01-15T20:45:02.522Z,3
2018-01-15T20:50:02.043Z,3
2018-01-15T20:55:02.141Z,3
2018-01-15T21:00:01.432Z,3
2018-01-15T21:05:02.381Z,3
2018-01-15T21:10:02.165Z,3
2018-01-15T21:15:01.907Z,3
2018-01-15T21:20:02.008Z,3
2018-01-15T21:25:01.574Z,3
2018-01-15T21:30:01.632Z,3
2018-01-15T21:35:01.957Z,3
2018-01-15T21:40:02.419Z,3
2018-01-15T21:45:01.891Z,3
2018-01-15T21:50:02.141Z,3.2
2018-01-15T21:55:01.784Z,3.2
2018-01-15T22:00:01.633Z,3.2
2018-01-15T22:05:01.622Z,3.1
2018-01-15T22:10:01.689Z,3.1
2018-01-15T22:15:01.558Z,3.1
2018-01-15T22:20:01.471Z,3.1
2018-01-15T22:25:01.737Z,3.1
2018-01-15T22:30:01.959Z,3
2018-01-15T22:35:01.901Z,3
2018-01-15T22:40:01.820Z,3
2018-01-15T22:45:02.052Z,3
2018-01-15T22:50:02.009Z,3
2018-01-15T22:55:01.749Z,2.9
2018-01-15T23:00:01.617Z,2.9
2018-01-15T23:05:01.642Z,2.9
2018-01-15T23:10:01.921Z,2.9
2018-01-15T23:15:02.607Z,2.8
2018-01-15T23:20:01.622Z,2.8
2018-01-15T23:25:01.909Z,2.7
2018-01-15T23:30:01.700Z,2.7
2018-01-15T23:35:02.235Z,2.7
2018-01-15T23:40:01.374Z,2.7
2018-01-15T23:45:01.331Z,2.7
2018-01-15T23:50:01.936Z,2.7
2018-01-15T23:55:02.401Z,2.7
